Time;durP1;ratioP1;P1;durP2;ratioP2;P2;SDS_P1;SDS_P2;PMS_P1;PMS_P2;Temp;Humidity;BMP_temperature;BMP_pressure;BME280_temperature;BME280_humidity;BME280_pressure;Samples;Min_cycle;Max_cycle;Signal;HPM_P1;HPM_P2
2022/05/16 00:01:04;;;;;;;9.77;4.13;;;;;;;;;;5025098;28;20607;-47
2022/05/16 00:03:30;;;;;;;24.70;14.13;;;;;;;;;;5025473;28;20433;-48
2022/05/16 00:05:57;;;;;;;10.18;5.85;;;;;;;;;;5024929;28;20083;-48
2022/05/16 00:08:23;;;;;;;17.08;6.25;;;;;;;;;;5024731;28;20822;-48
2022/05/16 00:10:51;;;;;;;8.20;3.83;;;;;;;;;;5024815;28;20100;-47
2022/05/16 00:13:17;;;;;;;24.08;14.00;;;;;;;;;;5025395;28;20477;-48
2022/05/16 00:15:43;;;;;;;10.88;4.80;;;;;;;;;;5025466;28;20033;-48
2022/05/16 00:18:09;;;;;;;8.10;3.17;;;;;;;;;;5024729;28;20078;-48
2022/05/16 00:20:38;;;;;;;6.97;3.53;;;;;;;;;;5024775;28;20041;-48
2022/05/16 00:23:04;;;;;;;10.35;5.70;;;;;;;;;;5024923;28;20017;-48
2022/05/16 00:25:30;;;;;;;10.10;4.22;;;;;;;;;;5024873;28;20076;-47
2022/05/16 00:27:57;;;;;;;19.77;10.48;;;;;;;;;;5024645;28;20074;-48
2022/05/16 00:30:23;;;;;;;21.20;6.60;;;;;;;;;;5024831;28;20116;-48
2022/05/16 00:32:50;;;;;;;18.58;9.60;;;;;;;;;;5024361;28;20079;-47
2022/05/16 00:35:19;;;;;;;10.18;6.53;;;;;;;;;;5025094;28;20029;-46
2022/05/16 00:37:45;;;;;;;10.23;4.32;;;;;;;;;;5024119;28;20020;-47
2022/05/16 00:40:11;;;;;;;7.88;3.88;;;;;;;;;;5023905;28;20044;-48
2022/05/16 00:42:38;;;;;;;8.95;6.40;;;;;;;;;;5024266;28;20078;-48
2022/05/16 00:45:05;;;;;;;13.98;5.80;;;;;;;;;;5024348;28;20133;-48
2022/05/16 00:47:33;;;;;;;16.20;9.32;;;;;;;;;;5024649;28;20028;-46
2022/05/16 00:50:00;;;;;;;14.23;6.28;;;;;;;;;;5023784;28;20087;-46
2022/05/16 00:52:29;;;;;;;9.63;5.20;;;;;;;;;;5036255;28;20025;-47
2022/05/16 00:55:00;;;;;;;13.73;7.68;;;;;;;;;;5073964;28;20028;-47
2022/05/16 00:57:37;;;;;;;16.60;10.25;;;;;;;;;;5074248;28;20028;-46
2022/05/16 01:00:11;;;;;;;13.07;6.13;;;;;;;;;;5074053;28;20458;-48
2022/05/16 01:05:23;;;;;;;18.60;10.02;;;;;;;;;;5074281;28;20040;-48
2022/05/16 01:07:50;;;;;;;21.63;11.82;;;;;;;;;;5073884;28;20012;-46
2022/05/16 01:10:17;;;;;;;14.65;6.85;;;;;;;;;;5073705;28;20416;-48
2022/05/16 01:12:45;;;;;;;9.55;4.82;;;;;;;;;;5073508;28;20017;-47
2022/05/16 01:15:15;;;;;;;11.88;5.80;;;;;;;;;;5073716;28;20464;-49
2022/05/16 01:17:41;;;;;;;11.27;4.60;;;;;;;;;;5073591;28;20074;-46
2022/05/16 01:20:08;;;;;;;35.13;6.50;;;;;;;;;;5073365;28;20139;-46
2022/05/16 01:22:37;;;;;;;27.50;5.68;;;;;;;;;;5073766;28;20125;-47
2022/05/16 01:25:08;;;;;;;19.92;5.40;;;;;;;;;;5073614;28;20035;-48
2022/05/16 01:27:45;;;;;;;6.53;3.40;;;;;;;;;;5073598;28;20024;-48
2022/05/16 01:30:12;;;;;;;7.07;3.72;;;;;;;;;;5074059;28;20128;-48
2022/05/16 01:32:38;;;;;;;11.32;4.32;;;;;;;;;;5073346;28;20077;-48
2022/05/16 01:35:05;;;;;;;4.38;3.80;;;;;;;;;;5071358;28;20074;-48
2022/05/16 01:40:15;;;;;;;8.60;5.53;;;;;;;;;;5072839;28;20565;-48
2022/05/16 01:42:41;;;;;;;36.80;19.65;;;;;;;;;;5073209;28;20058;-48
2022/05/16 01:45:08;;;;;;;26.92;16.20;;;;;;;;;;5073190;28;20024;-46
2022/05/16 01:47:34;;;;;;;13.23;7.80;;;;;;;;;;5073505;28;20020;-47
2022/05/16 01:50:00;;;;;;;8.77;5.05;;;;;;;;;;5073253;28;20476;-48
2022/05/16 01:52:29;;;;;;;8.65;4.63;;;;;;;;;;5073233;28;20021;-48
2022/05/16 01:54:55;;;;;;;8.20;5.05;;;;;;;;;;5073312;28;20040;-48
2022/05/16 01:57:22;;;;;;;8.10;4.82;;;;;;;;;;5073185;28;20063;-49
2022/05/16 01:59:50;;;;;;;8.82;4.57;;;;;;;;;;5072966;28;20495;-48
2022/05/16 02:02:16;;;;;;;10.50;5.07;;;;;;;;;;5073285;28;20035;-48
2022/05/16 02:04:42;;;;;;;7.35;4.95;;;;;;;;;;5073321;28;20036;-48
2022/05/16 02:07:10;;;;;;;11.25;5.15;;;;;;;;;;5073230;28;20049;-48
2022/05/16 02:09:36;;;;;;;8.45;4.60;;;;;;;;;;5073001;28;20141;-48
2022/05/16 02:12:05;;;;;;;8.30;4.68;;;;;;;;;;5073171;28;20074;-46
2022/05/16 02:14:34;;;;;;;11.52;5.10;;;;;;;;;;5072766;28;20024;-47
2022/05/16 02:17:00;;;;;;;8.70;4.57;;;;;;;;;;5073479;28;20529;-46
2022/05/16 02:19:26;;;;;;;8.68;4.70;;;;;;;;;;5073177;28;20064;-46
2022/05/16 02:24:39;;;;;;;7.60;4.20;;;;;;;;;;5073238;28;20492;-47
2022/05/16 02:27:06;;;;;;;10.18;5.03;;;;;;;;;;5073113;28;20051;-47
2022/05/16 02:29:34;;;;;;;11.77;4.93;;;;;;;;;;5072963;28;20025;-46
2022/05/16 02:32:01;;;;;;;9.00;4.50;;;;;;;;;;5072918;28;20017;-48
2022/05/16 02:34:27;;;;;;;10.90;5.15;;;;;;;;;;5072971;28;20025;-47
2022/05/16 02:36:53;;;;;;;11.07;4.80;;;;;;;;;;5073158;28;20032;-47
2022/05/16 02:39:22;;;;;;;10.07;4.53;;;;;;;;;;5072878;28;20462;-48
2022/05/16 02:41:48;;;;;;;7.47;4.85;;;;;;;;;;5072709;28;20038;-48
2022/05/16 02:44:17;;;;;;;9.75;4.90;;;;;;;;;;5072904;28;20077;-47
2022/05/16 02:46:43;;;;;;;9.35;5.20;;;;;;;;;;5072801;28;20020;-48
2022/05/16 02:49:09;;;;;;;11.77;4.18;;;;;;;;;;5072704;28;20027;-47
2022/05/16 02:51:35;;;;;;;8.77;5.82;;;;;;;;;;5075515;28;20456;-47
2022/05/16 02:54:03;;;;;;;7.07;4.85;;;;;;;;;;5076346;28;20103;-47
2022/05/16 02:56:30;;;;;;;9.23;5.70;;;;;;;;;;5076203;28;20026;-47
2022/05/16 02:58:58;;;;;;;8.15;4.20;;;;;;;;;;5076102;28;20021;-47
2022/05/16 03:01:25;;;;;;;6.38;3.95;;;;;;;;;;5076394;28;20031;-47
2022/05/16 03:03:51;;;;;;;12.10;4.50;;;;;;;;;;5076197;28;20527;-47
2022/05/16 03:06:17;;;;;;;7.97;3.90;;;;;;;;;;5076253;28;20115;-47
2022/05/16 03:08:43;;;;;;;11.75;4.22;;;;;;;;;;5076296;28;20051;-50
2022/05/16 03:11:09;;;;;;;6.10;3.70;;;;;;;;;;5075802;28;20458;-50
2022/05/16 03:13:35;;;;;;;7.72;4.75;;;;;;;;;;5075878;28;20357;-51
2022/05/16 03:16:02;;;;;;;7.90;4.05;;;;;;;;;;5075955;28;20029;-51
2022/05/16 03:18:29;;;;;;;6.78;3.88;;;;;;;;;;5075921;28;20070;-51
2022/05/16 03:20:55;;;;;;;11.93;3.53;;;;;;;;;;5075721;28;20476;-50
2022/05/16 03:23:21;;;;;;;13.93;4.00;;;;;;;;;;5075909;28;20021;-52
2022/05/16 03:25:47;;;;;;;11.30;4.00;;;;;;;;;;5075694;28;20025;-50
2022/05/16 03:28:13;;;;;;;13.88;6.38;;;;;;;;;;5075639;28;20059;-51
2022/05/16 03:30:40;;;;;;;14.15;5.63;;;;;;;;;;5075932;28;20039;-51
2022/05/16 03:33:06;;;;;;;16.60;5.93;;;;;;;;;;5075577;28;20032;-50
2022/05/16 03:35:33;;;;;;;12.60;6.20;;;;;;;;;;5075768;28;20022;-51
2022/05/16 03:37:59;;;;;;;11.32;5.50;;;;;;;;;;5075730;28;20486;-52
2022/05/16 03:40:45;;;;;;;10.48;4.78;;;;;;;;;;5075382;28;20036;-52
2022/05/16 03:43:11;;;;;;;14.93;5.00;;;;;;;;;;5075314;28;20108;-50
2022/05/16 03:45:38;;;;;;;11.43;5.10;;;;;;;;;;5075427;28;20036;-52
2022/05/16 03:48:05;;;;;;;13.15;5.10;;;;;;;;;;5075595;28;20020;-52
2022/05/16 03:50:32;;;;;;;14.63;6.22;;;;;;;;;;5075093;28;20036;-52
2022/05/16 03:52:59;;;;;;;12.35;5.90;;;;;;;;;;5075196;28;20082;-50
2022/05/16 03:55:26;;;;;;;17.75;5.75;;;;;;;;;;5065020;28;20461;-51
2022/05/16 03:57:52;;;;;;;14.02;5.60;;;;;;;;;;5054577;28;20453;-49
2022/05/16 04:00:19;;;;;;;12.80;5.32;;;;;;;;;;5054528;28;20449;-49
2022/05/16 04:02:45;;;;;;;8.27;5.18;;;;;;;;;;5053579;28;20465;-49
2022/05/16 04:05:15;;;;;;;10.57;4.90;;;;;;;;;;5054493;28;20087;-49
2022/05/16 04:07:41;;;;;;;14.15;5.93;;;;;;;;;;5055319;28;20025;-51
2022/05/16 04:10:08;;;;;;;12.60;6.13;;;;;;;;;;5055092;28;20122;-49
2022/05/16 04:12:34;;;;;;;12.00;5.47;;;;;;;;;;5055311;28;20025;-49
2022/05/16 04:15:03;;;;;;;11.77;5.55;;;;;;;;;;5054835;28;20068;-50
2022/05/16 04:17:29;;;;;;;10.13;6.50;;;;;;;;;;5054877;28;20028;-51
2022/05/16 04:19:55;;;;;;;28.08;6.60;;;;;;;;;;5054821;28;20037;-49
2022/05/16 04:22:22;;;;;;;12.70;5.20;;;;;;;;;;5054691;28;20032;-50
2022/05/16 04:24:48;;;;;;;10.90;5.57;;;;;;;;;;5054458;28;20385;-49
2022/05/16 04:27:14;;;;;;;10.80;5.30;;;;;;;;;;5054700;28;20025;-49
2022/05/16 04:29:40;;;;;;;9.50;5.20;;;;;;;;;;5054450;28;20035;-49
2022/05/16 04:32:06;;;;;;;12.73;5.18;;;;;;;;;;5054762;28;20025;-49
2022/05/16 04:34:32;;;;;;;12.50;6.05;;;;;;;;;;5054541;28;20028;-50
2022/05/16 04:36:58;;;;;;;10.00;5.28;;;;;;;;;;5054325;28;20025;-50
2022/05/16 04:39:24;;;;;;;11.90;5.78;;;;;;;;;;5054510;28;20072;-50
2022/05/16 04:44:39;;;;;;;21.42;6.18;;;;;;;;;;5054631;28;20098;-49
2022/05/16 04:47:08;;;;;;;16.15;10.27;;;;;;;;;;5054427;28;20101;-49
2022/05/16 04:49:35;;;;;;;35.42;21.83;;;;;;;;;;5054188;28;20330;-49
2022/05/16 04:52:01;;;;;;;21.60;12.75;;;;;;;;;;5054005;28;20041;-50
2022/05/16 04:54:27;;;;;;;21.92;12.38;;;;;;;;;;5053992;28;20029;-49
2022/05/16 04:56:54;;;;;;;10.32;6.47;;;;;;;;;;5054012;28;20021;-49
2022/05/16 04:59:20;;;;;;;17.60;8.50;;;;;;;;;;5053465;28;20029;-50
2022/05/16 05:01:50;;;;;;;19.63;11.60;;;;;;;;;;5053713;28;20376;-49
2022/05/16 05:04:16;;;;;;;20.38;10.35;;;;;;;;;;5051035;28;20029;-52
2022/05/16 05:06:43;;;;;;;10.38;5.90;;;;;;;;;;5053307;28;20423;-50
2022/05/16 05:09:09;;;;;;;10.02;5.40;;;;;;;;;;5053380;28;20029;-49
2022/05/16 05:14:32;;;;;;;17.58;6.97;;;;;;;;;;5053876;28;20116;-50
2022/05/16 05:17:03;;;;;;;13.82;7.18;;;;;;;;;;5053579;28;20078;-50
2022/05/16 05:19:29;;;;;;;7.30;4.78;;;;;;;;;;5053628;28;20068;-49
2022/05/16 05:21:56;;;;;;;10.02;4.82;;;;;;;;;;5053367;28;20029;-50
2022/05/16 05:24:22;;;;;;;13.75;5.82;;;;;;;;;;5053632;28;20032;-49
2022/05/16 05:26:48;;;;;;;19.58;9.43;;;;;;;;;;5053436;28;20021;-51
2022/05/16 05:29:15;;;;;;;10.75;6.05;;;;;;;;;;5053637;28;20025;-51
2022/05/16 05:31:41;;;;;;;17.83;10.93;;;;;;;;;;5053385;28;20100;-50
2022/05/16 05:34:11;;;;;;;11.60;5.78;;;;;;;;;;5035434;28;20021;-50
2022/05/16 05:36:38;;;;;;;10.57;5.65;;;;;;;;;;5053777;28;20075;-50
2022/05/16 05:39:07;;;;;;;17.33;7.80;;;;;;;;;;5053494;28;20025;-49
2022/05/16 05:41:33;;;;;;;15.70;5.20;;;;;;;;;;5053461;28;20029;-50
2022/05/16 05:43:59;;;;;;;9.13;4.90;;;;;;;;;;5053498;28;20033;-50
2022/05/16 05:46:26;;;;;;;9.63;6.03;;;;;;;;;;5053472;28;20029;-50
2022/05/16 05:48:52;;;;;;;7.90;4.72;;;;;;;;;;5053143;28;20112;-50
2022/05/16 05:51:18;;;;;;;8.27;4.43;;;;;;;;;;5053194;28;20033;-50
2022/05/16 05:53:44;;;;;;;9.20;6.28;;;;;;;;;;5053124;28;20025;-49
2022/05/16 05:56:12;;;;;;;11.88;4.78;;;;;;;;;;5053288;28;20040;-49
2022/05/16 05:58:38;;;;;;;7.07;4.00;;;;;;;;;;5053395;28;20070;-53
2022/05/16 06:01:04;;;;;;;10.18;3.85;;;;;;;;;;5053124;28;20033;-49
2022/05/16 06:03:31;;;;;;;8.68;3.67;;;;;;;;;;5053322;28;20029;-49
2022/05/16 06:05:57;;;;;;;8.00;3.42;;;;;;;;;;5053378;28;20377;-49
2022/05/16 06:08:23;;;;;;;4.88;2.90;;;;;;;;;;5053052;28;20106;-50
2022/05/16 06:10:49;;;;;;;11.77;6.32;;;;;;;;;;5053209;28;20041;-50
2022/05/16 06:13:16;;;;;;;6.97;3.53;;;;;;;;;;5053127;28;20492;-49
2022/05/16 06:15:43;;;;;;;7.43;3.28;;;;;;;;;;5053127;28;20031;-49
2022/05/16 06:18:09;;;;;;;12.43;3.13;;;;;;;;;;5053361;28;20056;-49
2022/05/16 06:20:35;;;;;;;7.22;3.03;;;;;;;;;;5052815;28;20044;-52
2022/05/16 06:23:01;;;;;;;9.98;2.80;;;;;;;;;;5034985;28;20026;-49
2022/05/16 06:25:33;;;;;;;6.55;2.58;;;;;;;;;;5054449;28;20029;-48
2022/05/16 06:28:01;;;;;;;7.00;2.70;;;;;;;;;;5056926;28;20025;-48
2022/05/16 06:30:27;;;;;;;7.65;2.42;;;;;;;;;;5056726;28;20033;-48
2022/05/16 06:32:53;;;;;;;7.93;2.42;;;;;;;;;;5056883;28;20017;-48
2022/05/16 06:35:20;;;;;;;10.90;3.20;;;;;;;;;;5056678;28;20029;-48
2022/05/16 06:37:46;;;;;;;5.57;3.00;;;;;;;;;;5056854;28;20027;-48
2022/05/16 06:40:13;;;;;;;8.90;2.53;;;;;;;;;;5056744;28;20485;-49
2022/05/16 06:42:39;;;;;;;6.18;2.38;;;;;;;;;;5056688;28;20482;-49
2022/05/16 06:45:07;;;;;;;4.90;2.10;;;;;;;;;;5056743;28;20036;-48
2022/05/16 06:47:33;;;;;;;2.88;1.90;;;;;;;;;;5056568;28;20044;-47
2022/05/16 06:49:59;;;;;;;5.07;2.42;;;;;;;;;;5056304;28;20108;-48
2022/05/16 06:52:25;;;;;;;3.88;1.98;;;;;;;;;;5056597;28;20431;-49
2022/05/16 06:54:52;;;;;;;7.50;2.10;;;;;;;;;;5056523;28;20024;-48
2022/05/16 06:57:18;;;;;;;4.30;1.83;;;;;;;;;;5056521;28;20025;-48
2022/05/16 06:59:46;;;;;;;4.95;2.35;;;;;;;;;;5056097;28;20513;-48
2022/05/16 07:02:12;;;;;;;5.13;2.17;;;;;;;;;;5056124;28;20029;-48
2022/05/16 07:04:39;;;;;;;6.70;1.90;;;;;;;;;;5056286;28;20052;-47
2022/05/16 07:07:08;;;;;;;5.10;3.13;;;;;;;;;;5056026;28;20028;-48
2022/05/16 07:09:34;;;;;;;10.95;5.05;;;;;;;;;;5056189;28;20033;-47
2022/05/16 07:12:00;;;;;;;5.85;2.58;;;;;;;;;;5056474;28;20057;-48
2022/05/16 07:14:26;;;;;;;11.68;7.40;;;;;;;;;;5055947;28;20033;-48
2022/05/16 07:16:52;;;;;;;6.82;2.88;;;;;;;;;;5055860;28;20492;-47
2022/05/16 07:19:18;;;;;;;8.38;5.13;;;;;;;;;;5055978;28;20025;-48
2022/05/16 07:21:44;;;;;;;4.20;2.42;;;;;;;;;;5055947;28;20439;-48
2022/05/16 07:24:11;;;;;;;14.65;5.85;;;;;;;;;;5056231;28;20036;-49
2022/05/16 07:29:22;;;;;;;17.20;5.45;;;;;;;;;;5055707;28;20040;-48
2022/05/16 07:31:51;;;;;;;4.38;2.08;;;;;;;;;;5055770;28;20024;-47
2022/05/16 07:34:17;;;;;;;8.48;3.45;;;;;;;;;;5055818;28;20040;-48
2022/05/16 07:36:43;;;;;;;6.75;3.22;;;;;;;;;;5054390;28;20145;-50
2022/05/16 07:39:09;;;;;;;6.93;3.42;;;;;;;;;;5055453;28;20556;-47
2022/05/16 07:41:36;;;;;;;12.32;6.30;;;;;;;;;;5055676;28;20033;-49
2022/05/16 07:44:02;;;;;;;7.47;3.92;;;;;;;;;;5055956;28;20471;-47
2022/05/16 07:46:28;;;;;;;5.82;2.85;;;;;;;;;;5055309;28;20149;-47
2022/05/16 07:48:54;;;;;;;5.97;2.13;;;;;;;;;;5055527;28;20025;-48
2022/05/16 07:51:20;;;;;;;3.53;2.05;;;;;;;;;;5037332;28;20091;-47
2022/05/16 07:53:47;;;;;;;4.13;2.30;;;;;;;;;;5037436;28;20461;-47
2022/05/16 07:56:13;;;;;;;6.55;2.42;;;;;;;;;;5055499;28;20086;-47
2022/05/16 07:58:39;;;;;;;7.38;2.22;;;;;;;;;;5055272;28;20033;-47
2022/05/16 08:01:05;;;;;;;5.78;1.80;;;;;;;;;;5055063;28;20037;-47
2022/05/16 08:03:32;;;;;;;4.22;1.40;;;;;;;;;;5055056;28;20042;-48
2022/05/16 08:05:59;;;;;;;6.78;1.77;;;;;;;;;;5055200;28;20428;-48
2022/05/16 08:11:10;;;;;;;13.18;6.82;;;;;;;;;;5054838;28;20048;-48
2022/05/16 08:13:36;;;;;;;5.90;2.38;;;;;;;;;;5055148;28;20511;-48
2022/05/16 08:16:02;;;;;;;4.38;1.33;;;;;;;;;;5054627;28;20052;-47
2022/05/16 08:18:28;;;;;;;2.55;1.73;;;;;;;;;;5054799;28;20059;-47
2022/05/16 08:20:55;;;;;;;5.70;2.17;;;;;;;;;;5054700;28;20044;-48
2022/05/16 08:23:22;;;;;;;7.80;1.92;;;;;;;;;;5054769;28;20020;-47
2022/05/16 08:25:49;;;;;;;3.33;1.60;;;;;;;;;;5054663;28;20033;-48
2022/05/16 08:28:15;;;;;;;3.90;1.73;;;;;;;;;;5054643;28;20021;-48
2022/05/16 08:30:41;;;;;;;3.58;2.03;;;;;;;;;;5054419;28;20134;-48
2022/05/16 08:33:07;;;;;;;6.00;2.95;;;;;;;;;;5054962;28;20025;-48
2022/05/16 08:35:34;;;;;;;7.03;3.50;;;;;;;;;;5054690;28;20029;-49
2022/05/16 08:40:44;;;;;;;6.05;1.80;;;;;;;;;;5054544;28;20047;-48
2022/05/16 08:43:16;;;;;;;5.13;2.38;;;;;;;;;;5036253;28;20078;-48
2022/05/16 08:45:47;;;;;;;5.75;2.17;;;;;;;;;;5036507;28;20028;-48
2022/05/16 08:48:18;;;;;;;6.93;2.67;;;;;;;;;;5054347;28;20048;-48
2022/05/16 08:50:52;;;;;;;3.20;2.10;;;;;;;;;;5054437;28;20029;-49
2022/05/16 08:53:51;;;;;;;3.42;1.42;;;;;;;;;;5054198;28;20036;-48
2022/05/16 08:56:18;;;;;;;7.75;3.83;;;;;;;;;;4954167;29;20047;-48
2022/05/16 08:58:50;;;;;;;2.75;1.70;;;;;;;;;;4954076;29;20034;-48
2022/05/16 09:01:19;;;;;;;7.68;4.40;;;;;;;;;;4953831;28;20031;-47
2022/05/16 09:03:53;;;;;;;6.97;3.00;;;;;;;;;;4953816;29;20060;-48
2022/05/16 09:06:24;;;;;;;11.95;3.58;;;;;;;;;;4954051;29;20043;-47
2022/05/16 09:08:53;;;;;;;12.73;5.15;;;;;;;;;;4953804;29;20387;-47
2022/05/16 09:11:30;;;;;;;11.80;4.75;;;;;;;;;;4953591;29;20083;-48
2022/05/16 09:14:03;;;;;;;24.48;16.77;;;;;;;;;;4953877;29;20035;-48
2022/05/16 09:16:39;;;;;;;8.45;5.07;;;;;;;;;;4953553;29;20046;-48
2022/05/16 09:19:17;;;;;;;6.53;2.70;;;;;;;;;;4953598;28;20038;-49
2022/05/16 09:22:06;;;;;;;18.95;15.25;;;;;;;;;;4953502;29;20054;-49
2022/05/16 09:24:44;;;;;;;24.23;13.43;;;;;;;;;;4934404;29;20063;-48
2022/05/16 09:28:34;;;;;;;9.30;4.93;;;;;;;;;;4918448;29;20071;-47
2022/05/16 09:30:02;;;;;;;18.13;9.63;;;;;;;;;;4934347;29;20038;-47
2022/05/16 09:32:30;;;;;;;28.95;17.65;;;;;;;;;;4978206;28;20030;-47
2022/05/16 09:34:56;;;;;;;12.63;7.43;;;;;;;;;;4992270;28;20491;-47
2022/05/16 09:37:23;;;;;;;116.95;95.03;;;;;;;;;;4992172;28;20034;-48
2022/05/16 09:39:52;;;;;;;30.45;20.63;;;;;;;;;;4992256;28;20592;-48
2022/05/16 09:42:22;;;;;;;68.78;54.92;;;;;;;;;;4991957;28;20034;-48
2022/05/16 09:44:54;;;;;;;19.52;10.45;;;;;;;;;;4992334;28;20038;-49
2022/05/16 09:47:29;;;;;;;36.53;25.90;;;;;;;;;;4992169;28;20030;-48
2022/05/16 09:50:07;;;;;;;26.02;18.40;;;;;;;;;;4992194;28;20026;-56
2022/05/16 09:52:36;;;;;;;40.35;31.63;;;;;;;;;;4991925;28;20034;-49
2022/05/16 09:55:07;;;;;;;22.60;14.02;;;;;;;;;;4992087;28;20426;-49
2022/05/16 09:57:41;;;;;;;66.68;50.47;;;;;;;;;;4992180;28;20034;-48
2022/05/16 10:00:26;;;;;;;39.85;22.35;;;;;;;;;;4992711;28;20088;-49
2022/05/16 10:03:15;;;;;;;13.70;6.30;;;;;;;;;;5037555;28;20029;-49
2022/05/16 10:05:48;;;;;;;22.98;15.38;;;;;;;;;;5037966;28;20022;-49
2022/05/16 10:08:22;;;;;;;39.55;23.38;;;;;;;;;;5037523;28;20021;-48
2022/05/16 10:10:48;;;;;;;55.17;33.08;;;;;;;;;;5049518;28;20056;-48
2022/05/16 10:13:15;;;;;;;14.43;9.18;;;;;;;;;;5057252;28;20536;-49
2022/05/16 10:15:41;;;;;;;12.15;7.20;;;;;;;;;;5056833;28;20076;-49
2022/05/16 10:18:12;;;;;;;11.57;5.32;;;;;;;;;;5057151;28;20458;-48
2022/05/16 10:20:46;;;;;;;6.32;2.25;;;;;;;;;;5056852;28;20147;-49
2022/05/16 10:23:23;;;;;;;14.52;9.45;;;;;;;;;;5057182;28;20384;-48
2022/05/16 10:25:51;;;;;;;36.30;24.00;;;;;;;;;;5056852;28;20029;-48
2022/05/16 10:28:29;;;;;;;40.97;23.42;;;;;;;;;;5057108;28;20386;-47
2022/05/16 10:33:44;;;;;;;35.92;25.50;;;;;;;;;;5056979;28;20039;-48
2022/05/16 10:36:19;;;;;;;26.10;16.58;;;;;;;;;;5056827;28;20392;-48
2022/05/16 10:38:52;;;;;;;37.58;27.30;;;;;;;;;;5056572;28;20025;-49
2022/05/16 10:41:28;;;;;;;48.50;32.75;;;;;;;;;;5056604;28;20210;-47
2022/05/16 10:44:02;;;;;;;23.30;15.60;;;;;;;;;;5056783;28;20075;-48
2022/05/16 10:46:33;;;;;;;15.05;9.25;;;;;;;;;;5056560;28;20029;-49
2022/05/16 10:49:03;;;;;;;4.25;2.08;;;;;;;;;;5056400;28;20025;-48
2022/05/16 10:51:32;;;;;;;108.72;92.82;;;;;;;;;;5038201;28;20475;-46
2022/05/16 10:54:05;;;;;;;61.13;32.67;;;;;;;;;;5056393;28;20453;-48
2022/05/16 10:56:52;;;;;;;37.33;25.13;;;;;;;;;;5038028;28;20033;-47
2022/05/16 10:59:37;;;;;;;44.80;29.08;;;;;;;;;;4956069;28;20138;-47
2022/05/16 11:02:03;;;;;;;13.07;8.65;;;;;;;;;;4956004;29;20046;-48
2022/05/16 11:04:29;;;;;;;5.35;2.47;;;;;;;;;;4956146;29;20050;-48
2022/05/16 11:07:15;;;;;;;21.38;15.05;;;;;;;;;;4956030;29;20448;-48
2022/05/16 11:09:41;;;;;;;30.52;16.02;;;;;;;;;;4955964;29;20044;-48
2022/05/16 11:12:15;;;;;;;13.23;6.68;;;;;;;;;;4955622;28;20031;-48
2022/05/16 11:14:41;;;;;;;19.45;10.38;;;;;;;;;;4955857;29;20027;-48
2022/05/16 11:17:29;;;;;;;25.60;10.77;;;;;;;;;;4955927;29;20099;-48
2022/05/16 11:19:55;;;;;;;17.30;7.80;;;;;;;;;;4955789;29;20131;-48
2022/05/16 11:22:36;;;;;;;9.75;6.35;;;;;;;;;;4955556;28;20027;-47
2022/05/16 11:25:05;;;;;;;14.27;7.82;;;;;;;;;;4955631;28;20074;-48
2022/05/16 11:27:34;;;;;;;25.70;15.45;;;;;;;;;;4955583;29;20472;-48
2022/05/16 11:30:03;;;;;;;7.68;4.40;;;;;;;;;;4955694;28;20043;-48
2022/05/16 11:32:48;;;;;;;7.93;3.30;;;;;;;;;;4955436;28;20030;-48
2022/05/16 11:35:23;;;;;;;69.07;6.97;;;;;;;;;;4958394;28;20027;-49
2022/05/16 11:38:06;;;;;;;17.90;6.60;;;;;;;;;;5055571;28;20498;-49
2022/05/16 11:40:35;;;;;;;14.73;7.75;;;;;;;;;;5055426;28;20465;-49
2022/05/16 11:43:01;;;;;;;13.05;6.63;;;;;;;;;;5055326;28;20021;-49
2022/05/16 11:45:27;;;;;;;15.18;5.43;;;;;;;;;;5055424;28;20354;-49
2022/05/16 11:48:00;;;;;;;25.33;7.22;;;;;;;;;;5055353;28;20366;-49
2022/05/16 11:50:42;;;;;;;162.30;23.15;;;;;;;;;;5055828;28;20477;-49
2022/05/16 11:53:28;;;;;;;61.33;12.23;;;;;;;;;;5055253;28;20071;-49
2022/05/16 12:01:34;;;;;;;16.65;4.65;;;;;;;;;;5055544;28;20083;-49
2022/05/16 12:04:16;;;;;;;12.00;4.35;;;;;;;;;;5055312;28;20025;-49
2022/05/16 12:06:48;;;;;;;233.18;27.40;;;;;;;;;;5055145;28;20025;-49
2022/05/16 12:09:17;;;;;;;29.05;6.43;;;;;;;;;;5054866;28;20064;-49
2022/05/16 12:11:51;;;;;;;27.67;7.95;;;;;;;;;;5054804;28;20041;-49
2022/05/16 12:14:29;;;;;;;17.65;8.60;;;;;;;;;;5054972;28;20085;-49
2022/05/16 12:17:18;;;;;;;49.30;20.33;;;;;;;;;;5055159;28;20082;-50
2022/05/16 12:19:49;;;;;;;15.15;7.03;;;;;;;;;;5039736;28;20045;-49
2022/05/16 12:22:17;;;;;;;;;;;;;;;;;;5054990;28;20025;-50
2022/05/16 12:25:03;;;;;;;45.67;22.45;;;;;;;;;;5054308;28;19905;-50
2022/05/16 12:27:34;;;;;;;12.98;8.07;;;;;;;;;;5054565;28;20029;-49
2022/05/16 12:30:01;;;;;;;;;;;;;;;;;;5055406;28;20108;-49
2022/05/16 12:32:30;;;;;;;6.28;3.10;;;;;;;;;;5054533;28;19908;-49
2022/05/16 12:35:00;;;;;;;7.97;3.45;;;;;;;;;;5054687;28;20373;-49
2022/05/16 12:37:27;;;;;;;8.23;3.78;;;;;;;;;;5054382;28;20013;-49
2022/05/16 12:40:22;;;;;;;11.80;5.53;;;;;;;;;;5054298;28;20072;-49
2022/05/16 12:42:59;;;;;;;6.88;3.92;;;;;;;;;;5033055;28;20118;-50
2022/05/16 12:45:25;;;;;;;4.97;3.03;;;;;;;;;;5054643;28;20025;-49
2022/05/16 12:47:57;;;;;;;4.32;2.53;;;;;;;;;;5054442;28;20057;-50
2022/05/16 12:50:32;;;;;;;7.15;2.65;;;;;;;;;;5036376;28;20031;-49
2022/05/16 12:53:16;;;;;;;7.35;2.10;;;;;;;;;;5054035;28;20032;-50
2022/05/16 12:55:44;;;;;;;7.60;2.08;;;;;;;;;;5054315;28;20025;-50
2022/05/16 12:58:29;;;;;;;7.30;3.13;;;;;;;;;;5054308;28;20024;-49
2022/05/16 13:01:04;;;;;;;5.95;2.20;;;;;;;;;;5053944;28;20401;-50
2022/05/16 13:03:38;;;;;;;11.30;3.03;;;;;;;;;;5054090;28;20032;-50
2022/05/16 13:06:12;;;;;;;9.13;2.92;;;;;;;;;;5054155;28;20455;-49
2022/05/16 13:09:07;;;;;;;9.85;4.22;;;;;;;;;;5054031;28;20028;-49
2022/05/16 13:11:54;;;;;;;39.17;29.67;;;;;;;;;;4953783;28;20578;-49
2022/05/16 13:14:20;;;;;;;17.60;11.50;;;;;;;;;;4953565;28;20114;-49
2022/05/16 13:16:52;;;;;;;8.23;6.13;;;;;;;;;;4954076;29;20099;-49
2022/05/16 13:19:18;;;;;;;14.18;9.45;;;;;;;;;;4953560;28;20034;-49
2022/05/16 13:21:54;;;;;;;10.13;4.45;;;;;;;;;;4953559;29;20071;-49
2022/05/16 13:24:21;;;;;;;16.95;11.00;;;;;;;;;;4953599;29;20169;-49
2022/05/16 13:29:34;;;;;;;24.90;6.18;;;;;;;;;;4954108;28;20118;-49
2022/05/16 13:32:12;;;;;;;18.92;5.22;;;;;;;;;;4953609;29;20038;-49
2022/05/16 13:34:50;;;;;;;10.45;4.95;;;;;;;;;;4953767;28;20047;-50
2022/05/16 13:37:21;;;;;;;10.05;6.20;;;;;;;;;;4952975;29;20031;-49
2022/05/16 13:39:50;;;;;;;10.30;6.55;;;;;;;;;;4952655;29;20023;-50
2022/05/16 13:42:20;;;;;;;10.60;3.53;;;;;;;;;;4952991;29;20042;-50
2022/05/16 13:44:50;;;;;;;5.43;3.65;;;;;;;;;;4953072;29;20035;-49
2022/05/16 13:47:22;;;;;;;3.70;2.00;;;;;;;;;;4970997;28;20037;-49
2022/05/16 13:49:49;;;;;;;12.77;8.32;;;;;;;;;;5032813;28;20040;-50
2022/05/16 13:52:25;;;;;;;20.35;14.52;;;;;;;;;;5030197;28;20477;-49
2022/05/16 13:54:53;;;;;;;9.35;7.03;;;;;;;;;;5032837;28;20030;-49
2022/05/16 13:57:26;;;;;;;23.95;15.45;;;;;;;;;;5031592;28;20453;-50
2022/05/16 14:00:08;;;;;;;10.23;7.22;;;;;;;;;;5033283;28;20026;-49
2022/05/16 14:02:34;;;;;;;6.70;4.60;;;;;;;;;;5032673;28;20021;-50
2022/05/16 14:05:06;;;;;;;8.73;3.72;;;;;;;;;;5032931;28;20029;-49
2022/05/16 14:07:34;;;;;;;13.55;8.45;;;;;;;;;;5032806;28;20488;-49
2022/05/16 14:10:01;;;;;;;12.25;6.35;;;;;;;;;;5038209;28;20497;-49
2022/05/16 14:12:35;;;;;;;2.92;2.47;;;;;;;;;;5059034;28;20025;-49
2022/05/16 14:15:03;;;;;;;4.35;3.33;;;;;;;;;;5050687;28;20025;-49
2022/05/16 14:17:34;;;;;;;6.88;3.80;;;;;;;;;;5052248;28;20025;-49
2022/05/16 14:20:05;;;;;;;5.75;3.78;;;;;;;;;;5052639;28;20041;-49
2022/05/16 14:22:34;;;;;;;5.45;3.50;;;;;;;;;;5052437;28;20023;-50
2022/05/16 14:25:05;;;;;;;6.88;4.30;;;;;;;;;;5052395;28;20049;-49
2022/05/16 14:27:37;;;;;;;7.47;3.88;;;;;;;;;;5052886;28;20025;-49
2022/05/16 14:30:23;;;;;;;8.07;4.80;;;;;;;;;;5052384;28;20052;-49
2022/05/16 14:32:51;;;;;;;4.07;2.70;;;;;;;;;;5052660;28;20060;-49
2022/05/16 14:35:24;;;;;;;4.63;2.60;;;;;;;;;;5052905;28;20061;-49
2022/05/16 14:37:54;;;;;;;2.65;2.35;;;;;;;;;;5052595;28;20381;-49
2022/05/16 14:40:22;;;;;;;5.47;2.63;;;;;;;;;;5052612;28;20033;-49
2022/05/16 14:43:01;;;;;;;5.25;3.45;;;;;;;;;;5052631;28;20024;-49
2022/05/16 14:48:12;;;;;;;8.07;2.10;;;;;;;;;;5056329;28;20044;-49
2022/05/16 14:50:38;;;;;;;2.53;1.70;;;;;;;;;;5056703;28;20029;-49
2022/05/16 14:53:06;;;;;;;2.22;1.83;;;;;;;;;;5056220;28;20024;-49
2022/05/16 14:55:32;;;;;;;5.25;2.47;;;;;;;;;;5056297;28;20029;-49
2022/05/16 14:58:00;;;;;;;5.00;3.50;;;;;;;;;;5054840;28;20170;-48
2022/05/16 15:05:56;;;;;;;2.83;1.70;;;;;;;;;;5056518;28;20451;-47
2022/05/16 15:08:25;;;;;;;4.18;2.03;;;;;;;;;;5055958;28;20483;-48
2022/05/16 15:10:52;;;;;;;9.70;4.57;;;;;;;;;;5055608;28;20489;-47
2022/05/16 15:13:18;;;;;;;3.45;1.90;;;;;;;;;;5056067;28;20026;-48
2022/05/16 15:15:45;;;;;;;5.43;3.05;;;;;;;;;;5055702;28;20036;-47
2022/05/16 15:18:12;;;;;;;3.55;2.15;;;;;;;;;;5055139;28;20036;-47
2022/05/16 15:20:39;;;;;;;5.82;3.03;;;;;;;;;;5052875;28;20119;-53
2022/05/16 15:23:05;;;;;;;9.25;3.20;;;;;;;;;;5047925;28;20024;-48
2022/05/16 15:25:33;;;;;;;4.68;1.80;;;;;;;;;;5055884;28;20016;-47
2022/05/16 15:27:59;;;;;;;3.03;1.70;;;;;;;;;;5055798;28;20465;-47